Harristown, IL (62537)

8:42 AM CDT on May 24, 2015 (GMT -0500)
APPLEVILLE | | Change Station
CLOSE
Current Station
Personal Weather Station
Location: Mt Auburn, IL
Elevation: 607 ft
Nearby Weather Stations

Elev 607 ft 39.80 °N, 89.14 °W | Updated 1 minute ago

Partly Cloudy
Partly Cloudy
72.1 °F
Feels Like 74 °F
N
0.6
Wind Variable Wind from South
Gusts 7.6 mph

Today
High -- | Low -- °F
--% Chance of Precip.
Yesterday
High -- | Low -- °F
Precip. -- in
5:34 AM 8:12 PM
Waxing Crescent, 39% visible
Pressure 30.14 in
Visibility 10.0 miles
Clouds Clear
Heat Index 74 °F
Dew Point 20 °F
Humidity 14%
Rainfall 0.00 in
Snow Depth Not available.
UV 2 out of 12
Pollen 8.00 out of 12
Air Quality Not available.
Flu Activity Sporadic
METAR KDEC 241254Z 16010KT 10SM CLR 20/12 A3014 RMK AO2 SLP204 T02000117

More Conditions Fewer Conditions

Pressure 30.14 in
Visibility 10.0 miles
Clouds Clear
Heat Index 74 °F
Dew Point 20 °F
Humidity 14%
Rainfall 0.00 in
Snow Depth Not available.
UV 2 out of 12
Pollen 8.00 out of 12
Air Quality Not available.
Flu Activity Sporadic
METAR KDEC 241254Z 16010KT 10SM CLR 20/12 A3014 RMK AO2 SLP204 T02000117

More Conditions Fewer Conditions

10-Day Weather Forecast

Almanac

Astronomy

May. 24, 2015 Rise Set
Actual Time
Civil Twilight
Nautical Twilight
Astronomical Twilight
Moon
Length of Visible Light
Length of Day
Tomorrow will be .
, % of the Moon is Illuminated

Today's Extremes

State Highs State Lows

Community

WunderPhotos

Upload Photos

1,823,738 photos uploaded!

WunderBlogs® & News

Nearby

Air Quality

  Air Quality AQ Index Pollutant
Not available.

Snow Depth

Station Depth Elevation

Earthquake Activity

City Distance Mag. Time & Date
Minimum magnitude displayed is 2.5.

Coastal Water Temperatures

Place Temperature

Stations

Nearby Weather Stations

Station Location Temp. Windchill Dew Point Humidity Wind Precip. Elev Updated Type